createdAt,value
2018-07-24T00:00:03.051Z,0
2018-07-24T00:05:02.813Z,0
2018-07-24T00:10:03.316Z,0
2018-07-24T00:15:02.623Z,0
2018-07-24T00:20:03.125Z,0
2018-07-24T00:25:02.559Z,0
2018-07-24T00:30:03.136Z,0
2018-07-24T00:35:02.580Z,0
2018-07-24T00:40:02.960Z,0
2018-07-24T00:45:03.474Z,0
2018-07-24T00:50:02.916Z,0
2018-07-24T00:55:02.460Z,0
2018-07-24T01:00:02.838Z,0
2018-07-24T01:05:03.136Z,0
2018-07-24T01:10:02.553Z,0
2018-07-24T01:15:02.867Z,0
2018-07-24T01:20:03.241Z,0
2018-07-24T01:25:02.529Z,0
2018-07-24T01:30:02.943Z,0
2018-07-24T01:35:02.534Z,0
2018-07-24T01:40:03.235Z,0
2018-07-24T01:45:02.683Z,0
2018-07-24T01:50:03.098Z,0
2018-07-24T01:55:02.522Z,0
2018-07-24T02:00:02.994Z,0
2018-07-24T02:05:02.387Z,0
2018-07-24T02:10:02.914Z,0
2018-07-24T02:15:03.313Z,0
2018-07-24T02:20:02.675Z,0
2018-07-24T02:25:03.082Z,0
2018-07-24T02:30:02.458Z,0
2018-07-24T02:35:02.920Z,0
2018-07-24T02:40:02.467Z,0
2018-07-24T02:45:02.983Z,0
2018-07-24T02:50:02.410Z,0
2018-07-24T02:55:02.751Z,0
2018-07-24T03:00:03.368Z,0
2018-07-24T03:05:02.698Z,2
2018-07-24T03:10:03.219Z,3
2018-07-24T03:15:02.584Z,7
2018-07-24T03:20:03.128Z,14
2018-07-24T03:25:02.539Z,26
2018-07-24T03:30:03.088Z,36
2018-07-24T03:35:02.484Z,49
2018-07-24T03:40:03.035Z,60
2018-07-24T03:45:02.665Z,95
2018-07-24T03:50:02.367Z,131
2018-07-24T03:55:02.771Z,253
2018-07-24T04:00:03.157Z,332
2018-07-24T04:05:02.539Z,421
2018-07-24T04:10:02.939Z,515
2018-07-24T04:15:02.424Z,618
2018-07-24T04:20:02.894Z,693
2018-07-24T04:25:03.283Z,800
2018-07-24T04:30:03.004Z,920
2018-07-24T04:35:02.413Z,1000
2018-07-24T04:40:02.900Z,1000
2018-07-24T04:45:02.400Z,1000
2018-07-24T04:50:02.711Z,1000
2018-07-24T04:55:03.118Z,1000
2018-07-24T05:00:02.458Z,1000
2018-07-24T05:05:02.803Z,1000
2018-07-24T05:10:03.184Z,1000
2018-07-24T05:15:02.642Z,1000
2018-07-24T05:20:03.033Z,1000
2018-07-24T05:25:02.387Z,1000
2018-07-24T05:30:02.872Z,2000
2018-07-24T05:35:03.211Z,2000
2018-07-24T05:40:02.623Z,2000
2018-07-24T05:45:03.027Z,2000
2018-07-24T05:50:02.441Z,2000
2018-07-24T05:55:02.916Z,2000
2018-07-24T06:00:02.666Z,2000
2018-07-24T06:05:03.141Z,2000
2018-07-24T06:10:02.574Z,2000
2018-07-24T06:15:02.921Z,2000
2018-07-24T06:20:03.300Z,2000
2018-07-24T06:25:02.662Z,2000
2018-07-24T06:30:02.993Z,2000
2018-07-24T06:35:02.612Z,3000
2018-07-24T06:40:02.574Z,3000
2018-07-24T06:45:02.993Z,3000
2018-07-24T06:50:02.352Z,3000
2018-07-24T06:55:02.751Z,3000
2018-07-24T07:00:03.440Z,3000
2018-07-24T07:05:02.946Z,3000
2018-07-24T07:10:02.606Z,3000
2018-07-24T07:15:02.969Z,4000
2018-07-24T07:20:02.396Z,4000
2018-07-24T07:25:02.838Z,4000
2018-07-24T07:30:03.348Z,4000
2018-07-24T07:35:02.723Z,4000
2018-07-24T07:40:03.153Z,4000
2018-07-24T07:45:02.572Z,4000
2018-07-24T07:50:02.973Z,5000
2018-07-24T07:55:03.307Z,5000
2018-07-24T08:00:02.625Z,5000
2018-07-24T08:05:03.136Z,5000
2018-07-24T08:10:02.463Z,8000
2018-07-24T08:15:02.884Z,29000
2018-07-24T08:20:03.226Z,35000
2018-07-24T08:25:02.603Z,36000
2018-07-24T08:30:03.068Z,38000
2018-07-24T08:35:02.463Z,41000
2018-07-24T08:40:03.063Z,40000
2018-07-24T08:45:02.514Z,40000
2018-07-24T08:50:03.007Z,38000
2018-07-24T08:55:03.180Z,34000
2018-07-24T09:00:02.468Z,38000
2018-07-24T09:05:02.929Z,42000
2018-07-24T09:10:02.362Z,47000
2018-07-24T09:15:02.750Z,49000
2018-07-24T09:20:03.121Z,40000
2018-07-24T09:25:02.525Z,45000
2018-07-24T09:30:02.900Z,46000
2018-07-24T09:35:03.299Z,44000
2018-07-24T09:40:02.703Z,37000
2018-07-24T09:45:03.112Z,37000
2018-07-24T09:50:02.452Z,48000
2018-07-24T09:55:02.801Z,49000
2018-07-24T10:00:03.149Z,28000
2018-07-24T10:05:02.569Z,42000
2018-07-24T10:10:03.083Z,47000
2018-07-24T10:15:02.534Z,47000
2018-07-24T10:20:03.101Z,46000
2018-07-24T10:25:02.457Z,48000
2018-07-24T10:30:02.840Z,27000
2018-07-24T10:35:02.541Z,43000
2018-07-24T10:40:02.987Z,46000
2018-07-24T10:45:02.434Z,13000
2018-07-24T10:50:02.819Z,12000
2018-07-24T10:55:03.208Z,34000
2018-07-24T11:00:02.548Z,43000
2018-07-24T11:05:02.940Z,43000
2018-07-24T11:10:02.525Z,45000
2018-07-24T11:15:02.948Z,11000
2018-07-24T11:20:02.438Z,10000
2018-07-24T11:25:02.907Z,32000
2018-07-24T11:30:03.285Z,41000
2018-07-24T11:35:02.880Z,16000
2018-07-24T11:40:02.340Z,40000
2018-07-24T11:45:02.704Z,49000
2018-07-24T11:50:03.177Z,24000
2018-07-24T11:55:02.551Z,34000
2018-07-24T12:00:02.950Z,46000
2018-07-24T12:05:02.366Z,25000
2018-07-24T12:10:02.951Z,20000
2018-07-24T12:15:02.500Z,48000
2018-07-24T12:20:03.306Z,48000
2018-07-24T12:25:02.748Z,41000
2018-07-24T12:30:03.175Z,48000
2018-07-24T12:35:02.675Z,49000
2018-07-24T12:40:03.280Z,47000
2018-07-24T12:45:02.712Z,15000
2018-07-24T12:50:03.097Z,22000
2018-07-24T12:55:02.440Z,42000
2018-07-24T13:00:02.814Z,46000
2018-07-24T13:05:03.469Z,45000
2018-07-24T13:10:03.126Z,44000
2018-07-24T13:15:02.782Z,40000
2018-07-24T13:20:03.201Z,41000
2018-07-24T13:25:02.614Z,42000
2018-07-24T13:30:03.030Z,41000
2018-07-24T13:35:02.404Z,40000
2018-07-24T13:40:02.888Z,40000
2018-07-24T13:45:03.355Z,35000
2018-07-24T13:50:03.015Z,37000
2018-07-24T13:55:02.415Z,36000
2018-07-24T14:00:02.899Z,36000
2018-07-24T14:05:02.398Z,34000
2018-07-24T14:10:02.824Z,35000
2018-07-24T14:15:03.373Z,30000
2018-07-24T14:20:02.792Z,30000
2018-07-24T14:25:03.203Z,29000
2018-07-24T14:30:02.566Z,28000
2018-07-24T14:35:03.012Z,29000
2018-07-24T14:40:02.414Z,28000
2018-07-24T14:45:02.775Z,29000
2018-07-24T14:50:03.230Z,29000
2018-07-24T14:55:02.572Z,28000
2018-07-24T15:00:03.242Z,28000
2018-07-24T15:05:02.665Z,27000
2018-07-24T15:10:03.182Z,27000
2018-07-24T15:15:02.559Z,26000
2018-07-24T15:20:02.971Z,25000
2018-07-24T15:25:02.839Z,25000
2018-07-24T15:30:03.199Z,23000
2018-07-24T15:35:02.791Z,22000
2018-07-24T15:40:02.824Z,21000
2018-07-24T15:45:03.251Z,20000
2018-07-24T15:50:02.624Z,19000
2018-07-24T15:55:03.096Z,18000
2018-07-24T16:00:02.501Z,17000
2018-07-24T16:05:03.162Z,16000
2018-07-24T16:10:02.606Z,16000
2018-07-24T16:15:03.114Z,15000
2018-07-24T16:20:02.746Z,14000
2018-07-24T16:25:03.154Z,14000
2018-07-24T16:30:02.890Z,13000
2018-07-24T16:35:03.303Z,12000
2018-07-24T16:40:02.724Z,11000
2018-07-24T16:45:03.436Z,11000
2018-07-24T16:50:02.814Z,11000
2018-07-24T16:55:03.132Z,10000
2018-07-24T17:00:02.492Z,9000
2018-07-24T17:05:02.981Z,9000
2018-07-24T17:10:02.402Z,8000
2018-07-24T17:15:02.787Z,8000
2018-07-24T17:20:03.247Z,8000
2018-07-24T17:25:02.570Z,7000
2018-07-24T17:30:03.001Z,7000
2018-07-24T17:35:02.399Z,7000
2018-07-24T17:40:02.855Z,6000
2018-07-24T17:45:03.286Z,6000
2018-07-24T17:50:02.736Z,5000
2018-07-24T17:55:03.293Z,5000
2018-07-24T18:00:02.668Z,4000
2018-07-24T18:05:02.380Z,4000
2018-07-24T18:10:02.899Z,3000
2018-07-24T18:15:02.875Z,3000
2018-07-24T18:20:03.131Z,3000
2018-07-24T18:25:02.479Z,2000
2018-07-24T18:30:02.888Z,1000
2018-07-24T18:35:03.260Z,1000
2018-07-24T18:40:02.625Z,1000
2018-07-24T18:45:03.010Z,1000
2018-07-24T18:50:02.460Z,897
2018-07-24T18:55:02.843Z,758
2018-07-24T19:00:03.213Z,651
2018-07-24T19:05:02.667Z,564
2018-07-24T19:10:02.451Z,489
2018-07-24T19:15:02.861Z,383
2018-07-24T19:20:02.340Z,334
2018-07-24T19:25:02.719Z,289
2018-07-24T19:30:03.098Z,158
2018-07-24T19:35:02.421Z,69
2018-07-24T19:40:02.941Z,58
2018-07-24T19:45:02.354Z,43
2018-07-24T19:50:02.821Z,34
2018-07-24T19:55:03.260Z,22
2018-07-24T20:00:02.681Z,16
2018-07-24T20:05:03.251Z,9
2018-07-24T20:10:02.733Z,4
2018-07-24T20:15:03.094Z,2
2018-07-24T20:20:02.534Z,1
2018-07-24T20:25:03.227Z,0
2018-07-24T20:30:02.654Z,0
2018-07-24T20:35:03.260Z,0
2018-07-24T20:40:03.388Z,0
2018-07-24T20:45:02.994Z,0
2018-07-24T20:50:02.365Z,0
2018-07-24T20:55:02.770Z,0
2018-07-24T21:00:03.188Z,0
2018-07-24T21:05:02.577Z,0
2018-07-24T21:10:03.030Z,0
2018-07-24T21:15:02.385Z,0
2018-07-24T21:20:02.740Z,0
2018-07-24T21:25:03.171Z,0
2018-07-24T21:30:02.953Z,0
2018-07-24T21:35:02.414Z,0
2018-07-24T21:40:02.846Z,0
2018-07-24T21:45:03.218Z,0
2018-07-24T21:50:02.557Z,0
2018-07-24T21:55:02.990Z,0
2018-07-24T22:00:02.428Z,0
2018-07-24T22:05:02.881Z,0
2018-07-24T22:10:03.313Z,0
2018-07-24T22:15:02.683Z,0
2018-07-24T22:20:03.276Z,0
2018-07-24T22:25:02.651Z,0
2018-07-24T22:30:03.085Z,0
2018-07-24T22:35:02.397Z,0
2018-07-24T22:40:02.820Z,0
2018-07-24T22:45:03.143Z,0
2018-07-24T22:50:02.473Z,0
2018-07-24T22:55:02.835Z,0
2018-07-24T23:00:03.159Z,0
2018-07-24T23:05:02.802Z,0
2018-07-24T23:10:03.295Z,0
2018-07-24T23:15:02.631Z,0
2018-07-24T23:20:03.094Z,0
2018-07-24T23:25:02.418Z,0
2018-07-24T23:30:02.779Z,0
2018-07-24T23:35:03.154Z,0
2018-07-24T23:40:02.557Z,0
2018-07-24T23:45:02.890Z,0
2018-07-24T23:50:03.317Z,0
2018-07-24T23:55:02.668Z,0
